sensor_id;sensor_type;location;lat;lon;timestamp;P1;durP1;ratioP1;P2;durP2;ratioP2
26702;SDS011;14316;51.074;3.704;2023-11-25T00:00:47;11.55;;;2.60;;
26702;SDS011;14316;51.074;3.704;2023-11-25T00:03:14;13.20;;;3.17;;
26702;SDS011;14316;51.074;3.704;2023-11-25T00:05:40;16.27;;;3.50;;
26702;SDS011;14316;51.074;3.704;2023-11-25T00:08:07;11.45;;;2.58;;
26702;SDS011;14316;51.074;3.704;2023-11-25T00:10:33;15.52;;;3.13;;
26702;SDS011;14316;51.074;3.704;2023-11-25T00:12:59;7.07;;;2.38;;
26702;SDS011;14316;51.074;3.704;2023-11-25T00:15:26;10.05;;;2.20;;
26702;SDS011;14316;51.074;3.704;2023-11-25T00:17:52;13.00;;;2.40;;
26702;SDS011;14316;51.074;3.704;2023-11-25T00:20:19;11.48;;;2.55;;
26702;SDS011;14316;51.074;3.704;2023-11-25T00:22:45;9.68;;;1.58;;
26702;SDS011;14316;51.074;3.704;2023-11-25T00:25:12;9.05;;;2.47;;
26702;SDS011;14316;51.074;3.704;2023-11-25T00:27:38;13.25;;;2.72;;
26702;SDS011;14316;51.074;3.704;2023-11-25T00:30:04;7.85;;;1.90;;
26702;SDS011;14316;51.074;3.704;2023-11-25T00:32:32;13.38;;;2.70;;
26702;SDS011;14316;51.074;3.704;2023-11-25T00:35:06;12.48;;;2.30;;
26702;SDS011;14316;51.074;3.704;2023-11-25T00:37:33;17.63;;;3.20;;
26702;SDS011;14316;51.074;3.704;2023-11-25T00:40:00;10.05;;;2.55;;
26702;SDS011;14316;51.074;3.704;2023-11-25T00:42:29;12.27;;;3.22;;
26702;SDS011;14316;51.074;3.704;2023-11-25T00:44:56;11.68;;;3.53;;
26702;SDS011;14316;51.074;3.704;2023-11-25T00:47:22;12.55;;;3.53;;
26702;SDS011;14316;51.074;3.704;2023-11-25T00:49:49;14.32;;;3.60;;
26702;SDS011;14316;51.074;3.704;2023-11-25T00:52:15;15.95;;;3.50;;
26702;SDS011;14316;51.074;3.704;2023-11-25T00:54:42;12.32;;;3.50;;
26702;SDS011;14316;51.074;3.704;2023-11-25T00:57:08;11.75;;;3.40;;
26702;SDS011;14316;51.074;3.704;2023-11-25T00:59:34;14.30;;;3.25;;
26702;SDS011;14316;51.074;3.704;2023-11-25T01:02:00;16.60;;;3.25;;
26702;SDS011;14316;51.074;3.704;2023-11-25T01:04:26;16.80;;;2.92;;
26702;SDS011;14316;51.074;3.704;2023-11-25T01:06:52;8.05;;;2.53;;
26702;SDS011;14316;51.074;3.704;2023-11-25T01:09:18;16.33;;;3.13;;
26702;SDS011;14316;51.074;3.704;2023-11-25T01:11:47;17.63;;;3.70;;
26702;SDS011;14316;51.074;3.704;2023-11-25T01:14:12;14.90;;;3.13;;
26702;SDS011;14316;51.074;3.704;2023-11-25T01:16:39;10.85;;;2.22;;
26702;SDS011;14316;51.074;3.704;2023-11-25T01:19:05;17.15;;;3.00;;
26702;SDS011;14316;51.074;3.704;2023-11-25T01:21:31;12.50;;;3.00;;
26702;SDS011;14316;51.074;3.704;2023-11-25T01:23:57;14.10;;;3.08;;
26702;SDS011;14316;51.074;3.704;2023-11-25T01:26:23;12.10;;;2.83;;
26702;SDS011;14316;51.074;3.704;2023-11-25T01:28:49;12.25;;;2.67;;
26702;SDS011;14316;51.074;3.704;2023-11-25T01:31:15;18.60;;;3.30;;
26702;SDS011;14316;51.074;3.704;2023-11-25T01:33:41;12.20;;;3.25;;
26702;SDS011;14316;51.074;3.704;2023-11-25T01:36:07;14.60;;;2.97;;
26702;SDS011;14316;51.074;3.704;2023-11-25T01:38:37;11.60;;;3.13;;
26702;SDS011;14316;51.074;3.704;2023-11-25T01:41:03;18.50;;;2.75;;
26702;SDS011;14316;51.074;3.704;2023-11-25T01:43:33;15.73;;;2.80;;
26702;SDS011;14316;51.074;3.704;2023-11-25T01:46:00;17.13;;;3.55;;
26702;SDS011;14316;51.074;3.704;2023-11-25T01:48:29;13.75;;;3.58;;
26702;SDS011;14316;51.074;3.704;2023-11-25T01:50:56;18.45;;;3.33;;
26702;SDS011;14316;51.074;3.704;2023-11-25T01:53:24;19.25;;;3.60;;
26702;SDS011;14316;51.074;3.704;2023-11-25T01:55:51;16.50;;;3.47;;
26702;SDS011;14316;51.074;3.704;2023-11-25T01:58:19;12.55;;;3.33;;
26702;SDS011;14316;51.074;3.704;2023-11-25T02:00:45;10.55;;;3.20;;
26702;SDS011;14316;51.074;3.704;2023-11-25T02:03:12;12.73;;;3.65;;
26702;SDS011;14316;51.074;3.704;2023-11-25T02:05:38;17.85;;;3.28;;
26702;SDS011;14316;51.074;3.704;2023-11-25T02:08:05;23.05;;;3.83;;
26702;SDS011;14316;51.074;3.704;2023-11-25T02:10:33;19.88;;;3.47;;
26702;SDS011;14316;51.074;3.704;2023-11-25T02:12:59;22.05;;;4.30;;
26702;SDS011;14316;51.074;3.704;2023-11-25T02:15:27;18.65;;;3.72;;
26702;SDS011;14316;51.074;3.704;2023-11-25T02:17:55;17.92;;;3.17;;
26702;SDS011;14316;51.074;3.704;2023-11-25T02:20:33;20.42;;;3.65;;
26702;SDS011;14316;51.074;3.704;2023-11-25T02:23:01;21.30;;;3.60;;
26702;SDS011;14316;51.074;3.704;2023-11-25T02:25:28;13.00;;;3.15;;
26702;SDS011;14316;51.074;3.704;2023-11-25T02:27:54;15.45;;;2.85;;
26702;SDS011;14316;51.074;3.704;2023-11-25T02:30:23;13.23;;;3.30;;
26702;SDS011;14316;51.074;3.704;2023-11-25T02:32:50;18.15;;;3.70;;
26702;SDS011;14316;51.074;3.704;2023-11-25T02:35:17;13.50;;;3.03;;
26702;SDS011;14316;51.074;3.704;2023-11-25T02:37:43;12.38;;;3.08;;
26702;SDS011;14316;51.074;3.704;2023-11-25T02:40:10;16.67;;;2.83;;
26702;SDS011;14316;51.074;3.704;2023-11-25T02:42:44;15.77;;;2.80;;
26702;SDS011;14316;51.074;3.704;2023-11-25T02:45:17;16.45;;;3.25;;
26702;SDS011;14316;51.074;3.704;2023-11-25T02:47:47;12.45;;;2.97;;
26702;SDS011;14316;51.074;3.704;2023-11-25T02:50:14;14.70;;;2.88;;
26702;SDS011;14316;51.074;3.704;2023-11-25T02:52:41;14.73;;;3.13;;
26702;SDS011;14316;51.074;3.704;2023-11-25T02:55:07;13.00;;;3.35;;
26702;SDS011;14316;51.074;3.704;2023-11-25T02:57:38;20.13;;;3.47;;
26702;SDS011;14316;51.074;3.704;2023-11-25T03:00:12;16.63;;;3.47;;
26702;SDS011;14316;51.074;3.704;2023-11-25T03:02:53;17.02;;;3.40;;
26702;SDS011;14316;51.074;3.704;2023-11-25T03:05:33;17.35;;;3.28;;
26702;SDS011;14316;51.074;3.704;2023-11-25T03:07:59;17.63;;;3.30;;
26702;SDS011;14316;51.074;3.704;2023-11-25T03:10:26;19.88;;;3.42;;
26702;SDS011;14316;51.074;3.704;2023-11-25T03:12:52;18.38;;;3.70;;
26702;SDS011;14316;51.074;3.704;2023-11-25T03:15:18;19.15;;;3.30;;
26702;SDS011;14316;51.074;3.704;2023-11-25T03:17:44;18.30;;;3.47;;
26702;SDS011;14316;51.074;3.704;2023-11-25T03:20:11;12.20;;;2.85;;
26702;SDS011;14316;51.074;3.704;2023-11-25T03:22:38;10.50;;;2.70;;
26702;SDS011;14316;51.074;3.704;2023-11-25T03:25:04;18.30;;;3.70;;
26702;SDS011;14316;51.074;3.704;2023-11-25T03:27:32;15.65;;;3.20;;
26702;SDS011;14316;51.074;3.704;2023-11-25T03:29:58;20.48;;;3.40;;
26702;SDS011;14316;51.074;3.704;2023-11-25T03:32:25;18.08;;;3.05;;
26702;SDS011;14316;51.074;3.704;2023-11-25T03:34:51;16.23;;;3.80;;
26702;SDS011;14316;51.074;3.704;2023-11-25T03:37:17;16.20;;;3.35;;
26702;SDS011;14316;51.074;3.704;2023-11-25T03:39:44;17.30;;;3.20;;
26702;SDS011;14316;51.074;3.704;2023-11-25T03:42:10;17.40;;;3.08;;
26702;SDS011;14316;51.074;3.704;2023-11-25T03:44:36;20.67;;;3.33;;
26702;SDS011;14316;51.074;3.704;2023-11-25T03:47:02;18.77;;;2.75;;
26702;SDS011;14316;51.074;3.704;2023-11-25T03:49:28;15.00;;;3.30;;
26702;SDS011;14316;51.074;3.704;2023-11-25T03:51:55;14.35;;;3.30;;
26702;SDS011;14316;51.074;3.704;2023-11-25T03:54:21;12.90;;;2.70;;
26702;SDS011;14316;51.074;3.704;2023-11-25T03:56:47;14.40;;;2.50;;
26702;SDS011;14316;51.074;3.704;2023-11-25T03:59:14;16.13;;;2.97;;
26702;SDS011;14316;51.074;3.704;2023-11-25T04:01:41;16.90;;;3.33;;
26702;SDS011;14316;51.074;3.704;2023-11-25T04:04:10;15.48;;;2.53;;
26702;SDS011;14316;51.074;3.704;2023-11-25T04:06:36;11.75;;;2.60;;
26702;SDS011;14316;51.074;3.704;2023-11-25T04:09:02;15.60;;;2.90;;
26702;SDS011;14316;51.074;3.704;2023-11-25T04:11:29;15.18;;;3.10;;
26702;SDS011;14316;51.074;3.704;2023-11-25T04:13:55;13.77;;;2.45;;
26702;SDS011;14316;51.074;3.704;2023-11-25T04:16:23;18.25;;;2.85;;
26702;SDS011;14316;51.074;3.704;2023-11-25T04:18:49;14.13;;;3.60;;
26702;SDS011;14316;51.074;3.704;2023-11-25T04:21:17;13.60;;;3.20;;
26702;SDS011;14316;51.074;3.704;2023-11-25T04:26:16;11.57;;;2.65;;
26702;SDS011;14316;51.074;3.704;2023-11-25T04:28:45;12.02;;;2.60;;
26702;SDS011;14316;51.074;3.704;2023-11-25T04:31:11;17.70;;;3.05;;
26702;SDS011;14316;51.074;3.704;2023-11-25T04:33:38;15.93;;;2.78;;
26702;SDS011;14316;51.074;3.704;2023-11-25T04:36:04;13.43;;;3.03;;
26702;SDS011;14316;51.074;3.704;2023-11-25T04:38:30;11.38;;;2.50;;
26702;SDS011;14316;51.074;3.704;2023-11-25T04:40:57;22.98;;;3.60;;
26702;SDS011;14316;51.074;3.704;2023-11-25T04:43:22;16.45;;;3.15;;
26702;SDS011;14316;51.074;3.704;2023-11-25T04:45:49;16.52;;;3.28;;
26702;SDS011;14316;51.074;3.704;2023-11-25T04:48:15;17.52;;;3.83;;
26702;SDS011;14316;51.074;3.704;2023-11-25T04:50:41;15.00;;;3.67;;
26702;SDS011;14316;51.074;3.704;2023-11-25T04:53:06;19.60;;;2.70;;
26702;SDS011;14316;51.074;3.704;2023-11-25T04:55:32;16.48;;;2.75;;
26702;SDS011;14316;51.074;3.704;2023-11-25T04:57:58;17.55;;;3.00;;
26702;SDS011;14316;51.074;3.704;2023-11-25T05:00:24;11.27;;;2.88;;
26702;SDS011;14316;51.074;3.704;2023-11-25T05:02:50;15.30;;;3.03;;
26702;SDS011;14316;51.074;3.704;2023-11-25T05:05:16;18.20;;;3.42;;
26702;SDS011;14316;51.074;3.704;2023-11-25T05:07:42;16.67;;;3.05;;
26702;SDS011;14316;51.074;3.704;2023-11-25T05:10:09;13.88;;;2.90;;
26702;SDS011;14316;51.074;3.704;2023-11-25T05:12:37;11.55;;;2.47;;
26702;SDS011;14316;51.074;3.704;2023-11-25T05:15:04;15.50;;;3.10;;
26702;SDS011;14316;51.074;3.704;2023-11-25T05:17:31;12.73;;;2.90;;
26702;SDS011;14316;51.074;3.704;2023-11-25T05:19:57;12.85;;;3.42;;
26702;SDS011;14316;51.074;3.704;2023-11-25T05:22:23;12.50;;;2.50;;
26702;SDS011;14316;51.074;3.704;2023-11-25T05:24:53;9.30;;;2.40;;
26702;SDS011;14316;51.074;3.704;2023-11-25T05:27:19;15.57;;;4.10;;
26702;SDS011;14316;51.074;3.704;2023-11-25T05:29:47;10.48;;;2.05;;
26702;SDS011;14316;51.074;3.704;2023-11-25T05:32:13;12.32;;;3.25;;
26702;SDS011;14316;51.074;3.704;2023-11-25T05:34:39;7.63;;;2.35;;
26702;SDS011;14316;51.074;3.704;2023-11-25T05:37:05;12.52;;;2.05;;
26702;SDS011;14316;51.074;3.704;2023-11-25T05:39:33;7.57;;;1.50;;
26702;SDS011;14316;51.074;3.704;2023-11-25T05:42:00;10.20;;;2.75;;
26702;SDS011;14316;51.074;3.704;2023-11-25T05:44:27;12.70;;;2.90;;
26702;SDS011;14316;51.074;3.704;2023-11-25T05:46:55;10.52;;;2.35;;
26702;SDS011;14316;51.074;3.704;2023-11-25T05:49:22;9.38;;;2.38;;
26702;SDS011;14316;51.074;3.704;2023-11-25T05:51:48;8.07;;;2.05;;
26702;SDS011;14316;51.074;3.704;2023-11-25T05:54:16;11.85;;;2.28;;
26702;SDS011;14316;51.074;3.704;2023-11-25T05:56:44;10.25;;;1.95;;
26702;SDS011;14316;51.074;3.704;2023-11-25T05:59:11;9.15;;;1.88;;
26702;SDS011;14316;51.074;3.704;2023-11-25T06:01:37;9.60;;;2.03;;
26702;SDS011;14316;51.074;3.704;2023-11-25T06:04:03;8.52;;;1.63;;
26702;SDS011;14316;51.074;3.704;2023-11-25T06:06:29;11.88;;;2.10;;
26702;SDS011;14316;51.074;3.704;2023-11-25T06:08:55;8.65;;;2.50;;
26702;SDS011;14316;51.074;3.704;2023-11-25T06:11:22;10.68;;;1.85;;
26702;SDS011;14316;51.074;3.704;2023-11-25T06:13:53;9.88;;;2.20;;
26702;SDS011;14316;51.074;3.704;2023-11-25T06:16:23;8.07;;;2.10;;
26702;SDS011;14316;51.074;3.704;2023-11-25T06:18:52;9.10;;;1.80;;
26702;SDS011;14316;51.074;3.704;2023-11-25T06:21:19;14.32;;;1.90;;
26702;SDS011;14316;51.074;3.704;2023-11-25T06:23:46;6.68;;;1.63;;
26702;SDS011;14316;51.074;3.704;2023-11-25T06:26:13;8.65;;;2.25;;
26702;SDS011;14316;51.074;3.704;2023-11-25T06:28:43;11.10;;;2.28;;
26702;SDS011;14316;51.074;3.704;2023-11-25T06:31:13;10.07;;;2.08;;
26702;SDS011;14316;51.074;3.704;2023-11-25T06:33:40;11.85;;;2.70;;
26702;SDS011;14316;51.074;3.704;2023-11-25T06:36:07;13.50;;;2.95;;
26702;SDS011;14316;51.074;3.704;2023-11-25T06:38:34;11.20;;;2.28;;
26702;SDS011;14316;51.074;3.704;2023-11-25T06:41:00;9.25;;;2.05;;
26702;SDS011;14316;51.074;3.704;2023-11-25T06:43:26;12.70;;;2.88;;
26702;SDS011;14316;51.074;3.704;2023-11-25T06:45:53;12.30;;;2.60;;
26702;SDS011;14316;51.074;3.704;2023-11-25T06:48:19;8.82;;;2.30;;
26702;SDS011;14316;51.074;3.704;2023-11-25T06:50:46;7.88;;;1.90;;
26702;SDS011;14316;51.074;3.704;2023-11-25T06:53:12;9.48;;;1.98;;
26702;SDS011;14316;51.074;3.704;2023-11-25T06:55:38;12.77;;;2.97;;
26702;SDS011;14316;51.074;3.704;2023-11-25T06:58:07;6.93;;;2.20;;
26702;SDS011;14316;51.074;3.704;2023-11-25T07:00:36;10.25;;;5.70;;
26702;SDS011;14316;51.074;3.704;2023-11-25T07:03:02;11.48;;;2.58;;
26702;SDS011;14316;51.074;3.704;2023-11-25T07:05:29;9.88;;;2.50;;
26702;SDS011;14316;51.074;3.704;2023-11-25T07:07:56;7.00;;;2.22;;
26702;SDS011;14316;51.074;3.704;2023-11-25T07:10:21;11.85;;;3.20;;
26702;SDS011;14316;51.074;3.704;2023-11-25T07:12:47;6.55;;;2.00;;
26702;SDS011;14316;51.074;3.704;2023-11-25T07:15:14;9.70;;;1.98;;
26702;SDS011;14316;51.074;3.704;2023-11-25T07:17:40;5.70;;;1.63;;
26702;SDS011;14316;51.074;3.704;2023-11-25T07:20:07;8.85;;;3.42;;
26702;SDS011;14316;51.074;3.704;2023-11-25T07:22:43;7.85;;;1.63;;
26702;SDS011;14316;51.074;3.704;2023-11-25T07:25:10;8.80;;;2.80;;
26702;SDS011;14316;51.074;3.704;2023-11-25T07:27:41;11.98;;;2.45;;
26702;SDS011;14316;51.074;3.704;2023-11-25T07:30:12;7.25;;;2.53;;
26702;SDS011;14316;51.074;3.704;2023-11-25T07:32:39;9.18;;;2.42;;
26702;SDS011;14316;51.074;3.704;2023-11-25T07:35:06;7.75;;;2.20;;
26702;SDS011;14316;51.074;3.704;2023-11-25T07:37:36;7.43;;;2.65;;
26702;SDS011;14316;51.074;3.704;2023-11-25T07:40:03;9.18;;;2.10;;
26702;SDS011;14316;51.074;3.704;2023-11-25T07:42:34;6.90;;;2.00;;
26702;SDS011;14316;51.074;3.704;2023-11-25T07:45:03;7.28;;;1.90;;
26702;SDS011;14316;51.074;3.704;2023-11-25T07:47:34;9.73;;;2.42;;
26702;SDS011;14316;51.074;3.704;2023-11-25T07:50:01;4.35;;;1.65;;
26702;SDS011;14316;51.074;3.704;2023-11-25T07:52:27;17.95;;;2.75;;
26702;SDS011;14316;51.074;3.704;2023-11-25T07:54:53;14.13;;;2.58;;
26702;SDS011;14316;51.074;3.704;2023-11-25T07:57:19;9.50;;;2.15;;
26702;SDS011;14316;51.074;3.704;2023-11-25T07:59:45;11.13;;;2.13;;
26702;SDS011;14316;51.074;3.704;2023-11-25T08:02:11;12.48;;;2.88;;
26702;SDS011;14316;51.074;3.704;2023-11-25T08:04:37;8.57;;;1.95;;
26702;SDS011;14316;51.074;3.704;2023-11-25T08:07:03;13.35;;;2.55;;
26702;SDS011;14316;51.074;3.704;2023-11-25T08:09:31;14.52;;;2.80;;
26702;SDS011;14316;51.074;3.704;2023-11-25T08:11:58;11.50;;;2.42;;
26702;SDS011;14316;51.074;3.704;2023-11-25T08:14:24;10.77;;;3.38;;
26702;SDS011;14316;51.074;3.704;2023-11-25T08:16:50;8.55;;;1.77;;
26702;SDS011;14316;51.074;3.704;2023-11-25T08:19:16;9.10;;;2.22;;
26702;SDS011;14316;51.074;3.704;2023-11-25T08:21:46;6.35;;;2.13;;
26702;SDS011;14316;51.074;3.704;2023-11-25T08:24:13;11.05;;;2.80;;
26702;SDS011;14316;51.074;3.704;2023-11-25T08:26:42;10.50;;;2.53;;
26702;SDS011;14316;51.074;3.704;2023-11-25T08:29:09;12.70;;;3.08;;
26702;SDS011;14316;51.074;3.704;2023-11-25T08:31:37;8.57;;;2.78;;
26702;SDS011;14316;51.074;3.704;2023-11-25T08:34:03;10.65;;;3.70;;
26702;SDS011;14316;51.074;3.704;2023-11-25T08:36:34;11.98;;;3.70;;
26702;SDS011;14316;51.074;3.704;2023-11-25T08:39:10;7.88;;;2.35;;
26702;SDS011;14316;51.074;3.704;2023-11-25T08:41:41;10.90;;;3.33;;
26702;SDS011;14316;51.074;3.704;2023-11-25T08:44:08;8.77;;;2.58;;
26702;SDS011;14316;51.074;3.704;2023-11-25T08:46:38;3.90;;;2.08;;
26702;SDS011;14316;51.074;3.704;2023-11-25T08:49:11;8.90;;;2.17;;
26702;SDS011;14316;51.074;3.704;2023-11-25T08:51:42;7.60;;;2.03;;
26702;SDS011;14316;51.074;3.704;2023-11-25T08:54:11;9.45;;;2.15;;
26702;SDS011;14316;51.074;3.704;2023-11-25T08:56:43;8.00;;;2.40;;
26702;SDS011;14316;51.074;3.704;2023-11-25T08:59:13;8.55;;;2.50;;
26702;SDS011;14316;51.074;3.704;2023-11-25T09:01:43;8.52;;;2.80;;
26702;SDS011;14316;51.074;3.704;2023-11-25T09:04:10;5.78;;;2.17;;
26702;SDS011;14316;51.074;3.704;2023-11-25T09:06:41;3.75;;;1.20;;
26702;SDS011;14316;51.074;3.704;2023-11-25T09:09:07;4.20;;;1.60;;
26702;SDS011;14316;51.074;3.704;2023-11-25T09:11:33;4.95;;;1.25;;
26702;SDS011;14316;51.074;3.704;2023-11-25T09:14:00;2.53;;;1.35;;
26702;SDS011;14316;51.074;3.704;2023-11-25T09:16:29;4.03;;;1.77;;
26702;SDS011;14316;51.074;3.704;2023-11-25T09:18:55;4.25;;;1.38;;
26702;SDS011;14316;51.074;3.704;2023-11-25T09:21:21;4.45;;;2.55;;
26702;SDS011;14316;51.074;3.704;2023-11-25T09:23:47;6.68;;;2.13;;
26702;SDS011;14316;51.074;3.704;2023-11-25T09:26:13;5.18;;;1.83;;
26702;SDS011;14316;51.074;3.704;2023-11-25T09:28:39;8.73;;;2.70;;
26702;SDS011;14316;51.074;3.704;2023-11-25T09:31:05;10.60;;;2.33;;
26702;SDS011;14316;51.074;3.704;2023-11-25T09:33:32;12.90;;;3.25;;
26702;SDS011;14316;51.074;3.704;2023-11-25T09:35:58;9.38;;;2.25;;
26702;SDS011;14316;51.074;3.704;2023-11-25T09:38:24;6.53;;;1.92;;
26702;SDS011;14316;51.074;3.704;2023-11-25T09:40:52;11.82;;;2.78;;
26702;SDS011;14316;51.074;3.704;2023-11-25T09:43:18;11.07;;;3.28;;
26702;SDS011;14316;51.074;3.704;2023-11-25T09:45:46;11.77;;;3.47;;
26702;SDS011;14316;51.074;3.704;2023-11-25T09:48:14;9.75;;;3.10;;
26702;SDS011;14316;51.074;3.704;2023-11-25T09:50:40;11.75;;;3.13;;
26702;SDS011;14316;51.074;3.704;2023-11-25T09:53:09;11.30;;;3.60;;
26702;SDS011;14316;51.074;3.704;2023-11-25T09:55:45;12.57;;;2.90;;
26702;SDS011;14316;51.074;3.704;2023-11-25T09:58:24;9.00;;;2.13;;
26702;SDS011;14316;51.074;3.704;2023-11-25T10:00:52;9.18;;;2.17;;
26702;SDS011;14316;51.074;3.704;2023-11-25T10:03:23;12.95;;;3.13;;
26702;SDS011;14316;51.074;3.704;2023-11-25T10:05:53;12.82;;;3.47;;
26702;SDS011;14316;51.074;3.704;2023-11-25T10:08:19;12.18;;;2.83;;
26702;SDS011;14316;51.074;3.704;2023-11-25T10:11:01;14.20;;;3.03;;
26702;SDS011;14316;51.074;3.704;2023-11-25T10:13:34;7.43;;;2.33;;
26702;SDS011;14316;51.074;3.704;2023-11-25T10:16:01;9.50;;;2.67;;
26702;SDS011;14316;51.074;3.704;2023-11-25T10:18:29;10.73;;;3.08;;
26702;SDS011;14316;51.074;3.704;2023-11-25T10:20:56;15.80;;;3.92;;
26702;SDS011;14316;51.074;3.704;2023-11-25T10:23:25;16.52;;;3.70;;
26702;SDS011;14316;51.074;3.704;2023-11-25T10:25:51;14.85;;;3.80;;
26702;SDS011;14316;51.074;3.704;2023-11-25T10:28:20;17.80;;;3.70;;
26702;SDS011;14316;51.074;3.704;2023-11-25T10:30:53;12.90;;;3.50;;
26702;SDS011;14316;51.074;3.704;2023-11-25T10:35:49;15.50;;;4.20;;
26702;SDS011;14316;51.074;3.704;2023-11-25T10:38:16;11.60;;;3.55;;
26702;SDS011;14316;51.074;3.704;2023-11-25T10:40:45;10.75;;;2.72;;
26702;SDS011;14316;51.074;3.704;2023-11-25T10:43:11;10.95;;;3.10;;
26702;SDS011;14316;51.074;3.704;2023-11-25T10:45:37;13.05;;;3.45;;
26702;SDS011;14316;51.074;3.704;2023-11-25T10:48:03;13.18;;;3.55;;
26702;SDS011;14316;51.074;3.704;2023-11-25T10:50:32;11.02;;;2.90;;
26702;SDS011;14316;51.074;3.704;2023-11-25T10:52:58;10.18;;;2.92;;
26702;SDS011;14316;51.074;3.704;2023-11-25T10:55:29;13.40;;;2.97;;
26702;SDS011;14316;51.074;3.704;2023-11-25T10:57:57;11.35;;;3.30;;
26702;SDS011;14316;51.074;3.704;2023-11-25T11:00:29;12.25;;;3.40;;
26702;SDS011;14316;51.074;3.704;2023-11-25T11:02:56;13.50;;;2.60;;
26702;SDS011;14316;51.074;3.704;2023-11-25T11:05:25;11.27;;;3.00;;
26702;SDS011;14316;51.074;3.704;2023-11-25T11:08:17;11.40;;;2.67;;
26702;SDS011;14316;51.074;3.704;2023-11-25T11:13:35;11.40;;;2.30;;
26702;SDS011;14316;51.074;3.704;2023-11-25T11:16:12;13.57;;;2.78;;
26702;SDS011;14316;51.074;3.704;2023-11-25T11:18:45;12.55;;;2.95;;
26702;SDS011;14316;51.074;3.704;2023-11-25T11:21:12;14.90;;;3.72;;
26702;SDS011;14316;51.074;3.704;2023-11-25T11:23:41;17.45;;;3.42;;
26702;SDS011;14316;51.074;3.704;2023-11-25T11:28:55;17.42;;;4.13;;
26702;SDS011;14316;51.074;3.704;2023-11-25T11:34:06;12.32;;;2.80;;
26702;SDS011;14316;51.074;3.704;2023-11-25T11:36:32;12.23;;;2.97;;
26702;SDS011;14316;51.074;3.704;2023-11-25T11:39:00;9.98;;;2.88;;
26702;SDS011;14316;51.074;3.704;2023-11-25T11:41:27;13.40;;;6.15;;
26702;SDS011;14316;51.074;3.704;2023-11-25T11:44:01;11.80;;;2.50;;
26702;SDS011;14316;51.074;3.704;2023-11-25T11:46:28;10.38;;;2.97;;
26702;SDS011;14316;51.074;3.704;2023-11-25T11:48:57;8.13;;;2.13;;
26702;SDS011;14316;51.074;3.704;2023-11-25T11:51:26;7.40;;;1.67;;
26702;SDS011;14316;51.074;3.704;2023-11-25T11:57:00;7.30;;;1.60;;
26702;SDS011;14316;51.074;3.704;2023-11-25T12:02:28;9.43;;;2.08;;
26702;SDS011;14316;51.074;3.704;2023-11-25T12:04:59;9.38;;;2.70;;
26702;SDS011;14316;51.074;3.704;2023-11-25T12:07:26;10.57;;;2.15;;
26702;SDS011;14316;51.074;3.704;2023-11-25T12:09:53;9.68;;;2.28;;
26702;SDS011;14316;51.074;3.704;2023-11-25T12:12:20;11.45;;;2.53;;
26702;SDS011;14316;51.074;3.704;2023-11-25T12:14:46;12.40;;;2.47;;
26702;SDS011;14316;51.074;3.704;2023-11-25T12:17:13;10.30;;;2.95;;
26702;SDS011;14316;51.074;3.704;2023-11-25T12:19:41;8.10;;;2.35;;
26702;SDS011;14316;51.074;3.704;2023-11-25T12:22:11;10.73;;;3.50;;
26702;SDS011;14316;51.074;3.704;2023-11-25T12:24:40;10.57;;;2.78;;
26702;SDS011;14316;51.074;3.704;2023-11-25T12:27:07;10.20;;;2.70;;
26702;SDS011;14316;51.074;3.704;2023-11-25T12:29:36;11.57;;;3.10;;
26702;SDS011;14316;51.074;3.704;2023-11-25T12:32:02;9.10;;;2.42;;
26702;SDS011;14316;51.074;3.704;2023-11-25T12:34:29;8.90;;;2.05;;
26702;SDS011;14316;51.074;3.704;2023-11-25T12:36:55;14.27;;;2.90;;
26702;SDS011;14316;51.074;3.704;2023-11-25T12:39:22;21.23;;;3.40;;
26702;SDS011;14316;51.074;3.704;2023-11-25T12:41:49;16.38;;;3.63;;
26702;SDS011;14316;51.074;3.704;2023-11-25T12:44:15;14.57;;;3.25;;
26702;SDS011;14316;51.074;3.704;2023-11-25T12:46:42;8.73;;;3.17;;
26702;SDS011;14316;51.074;3.704;2023-11-25T12:49:31;12.65;;;3.10;;
26702;SDS011;14316;51.074;3.704;2023-11-25T12:51:56;10.35;;;3.38;;
26702;SDS011;14316;51.074;3.704;2023-11-25T12:54:22;9.70;;;2.40;;
26702;SDS011;14316;51.074;3.704;2023-11-25T12:56:52;11.25;;;2.75;;
26702;SDS011;14316;51.074;3.704;2023-11-25T12:59:26;13.23;;;3.03;;
26702;SDS011;14316;51.074;3.704;2023-11-25T13:02:03;12.60;;;2.83;;
26702;SDS011;14316;51.074;3.704;2023-11-25T13:04:32;10.23;;;2.75;;
26702;SDS011;14316;51.074;3.704;2023-11-25T13:06:58;8.75;;;2.40;;
26702;SDS011;14316;51.074;3.704;2023-11-25T13:09:28;12.68;;;2.78;;
26702;SDS011;14316;51.074;3.704;2023-11-25T13:11:55;7.97;;;2.65;;
26702;SDS011;14316;51.074;3.704;2023-11-25T13:14:22;7.15;;;2.35;;
26702;SDS011;14316;51.074;3.704;2023-11-25T13:16:48;14.77;;;2.55;;
26702;SDS011;14316;51.074;3.704;2023-11-25T13:19:14;8.15;;;2.38;;
26702;SDS011;14316;51.074;3.704;2023-11-25T13:21:40;12.50;;;2.78;;
26702;SDS011;14316;51.074;3.704;2023-11-25T13:24:06;9.73;;;2.50;;
26702;SDS011;14316;51.074;3.704;2023-11-25T13:26:32;16.60;;;3.08;;
26702;SDS011;14316;51.074;3.704;2023-11-25T13:28:59;8.45;;;2.03;;
26702;SDS011;14316;51.074;3.704;2023-11-25T13:31:26;8.43;;;1.92;;
26702;SDS011;14316;51.074;3.704;2023-11-25T13:33:52;4.18;;;1.50;;
26702;SDS011;14316;51.074;3.704;2023-11-25T13:36:20;6.38;;;2.10;;
26702;SDS011;14316;51.074;3.704;2023-11-25T13:38:46;6.28;;;1.77;;
26702;SDS011;14316;51.074;3.704;2023-11-25T13:41:12;5.88;;;1.80;;
26702;SDS011;14316;51.074;3.704;2023-11-25T13:43:38;6.22;;;2.30;;
26702;SDS011;14316;51.074;3.704;2023-11-25T13:46:04;12.80;;;3.30;;
26702;SDS011;14316;51.074;3.704;2023-11-25T13:48:30;10.05;;;3.35;;
26702;SDS011;14316;51.074;3.704;2023-11-25T13:50:56;13.07;;;2.90;;
26702;SDS011;14316;51.074;3.704;2023-11-25T13:53:22;8.18;;;2.20;;
26702;SDS011;14316;51.074;3.704;2023-11-25T13:55:48;9.05;;;2.17;;
26702;SDS011;14316;51.074;3.704;2023-11-25T13:58:14;8.93;;;2.40;;
26702;SDS011;14316;51.074;3.704;2023-11-25T14:00:44;9.55;;;2.55;;
26702;SDS011;14316;51.074;3.704;2023-11-25T14:03:10;10.95;;;2.58;;
26702;SDS011;14316;51.074;3.704;2023-11-25T14:05:37;10.80;;;2.55;;
26702;SDS011;14316;51.074;3.704;2023-11-25T14:08:11;6.93;;;2.42;;
26702;SDS011;14316;51.074;3.704;2023-11-25T14:13:07;8.80;;;2.83;;
26702;SDS011;14316;51.074;3.704;2023-11-25T14:15:37;8.65;;;2.80;;
26702;SDS011;14316;51.074;3.704;2023-11-25T14:18:03;12.40;;;2.50;;
26702;SDS011;14316;51.074;3.704;2023-11-25T14:20:32;9.57;;;2.47;;
26702;SDS011;14316;51.074;3.704;2023-11-25T14:22:59;10.13;;;2.95;;
26702;SDS011;14316;51.074;3.704;2023-11-25T14:25:27;8.77;;;3.10;;
26702;SDS011;14316;51.074;3.704;2023-11-25T14:27:53;13.15;;;3.00;;
26702;SDS011;14316;51.074;3.704;2023-11-25T14:30:20;9.60;;;2.42;;
26702;SDS011;14316;51.074;3.704;2023-11-25T14:32:48;13.30;;;2.92;;
26702;SDS011;14316;51.074;3.704;2023-11-25T14:35:15;13.57;;;2.88;;
26702;SDS011;14316;51.074;3.704;2023-11-25T14:37:42;11.45;;;2.70;;
26702;SDS011;14316;51.074;3.704;2023-11-25T14:40:11;10.93;;;3.25;;
26702;SDS011;14316;51.074;3.704;2023-11-25T14:42:42;11.48;;;2.80;;
26702;SDS011;14316;51.074;3.704;2023-11-25T14:45:09;15.68;;;3.17;;
26702;SDS011;14316;51.074;3.704;2023-11-25T14:47:36;14.07;;;2.90;;
26702;SDS011;14316;51.074;3.704;2023-11-25T14:50:02;15.63;;;3.00;;
26702;SDS011;14316;51.074;3.704;2023-11-25T14:52:29;12.30;;;3.53;;
26702;SDS011;14316;51.074;3.704;2023-11-25T14:54:56;12.73;;;3.25;;
26702;SDS011;14316;51.074;3.704;2023-11-25T14:57:22;17.95;;;3.83;;
26702;SDS011;14316;51.074;3.704;2023-11-25T14:59:48;14.57;;;4.75;;
26702;SDS011;14316;51.074;3.704;2023-11-25T15:02:14;13.27;;;3.67;;